Time;durP1;ratioP1;P1;durP2;ratioP2;P2;SDS_P1;SDS_P2;PMS_P1;PMS_P2;Temp;Humidity;BMP_temperature;BMP_pressure;BME280_temperature;BME280_humidity;BME280_pressure;Samples;Min_cycle;Max_cycle;Signal;HPM_P1;HPM_P2
2022/04/29 00:02:14;;;;;;;12.23;3.53;;;6.90;99.90;;;;;;4986986;28;20042;-76
2022/04/29 00:04:40;;;;;;;13.75;3.55;;;6.90;99.90;;;;;;4992245;28;20175;-76
2022/04/29 00:07:09;;;;;;;13.70;2.90;;;6.90;99.90;;;;;;4984275;28;20431;-77
2022/04/29 00:09:35;;;;;;;13.63;3.67;;;6.80;99.90;;;;;;4981301;28;20107;-77
2022/04/29 00:12:03;;;;;;;15.52;3.15;;;6.80;99.90;;;;;;4985526;28;20125;-77
2022/04/29 00:14:30;;;;;;;8.90;3.05;;;6.80;99.90;;;;;;4961596;28;20498;-77
2022/04/29 00:16:56;;;;;;;13.10;3.25;;;6.80;99.90;;;;;;4977686;28;20205;-76
2022/04/29 00:19:22;;;;;;;14.07;3.20;;;7.40;99.90;;;;;;4976002;28;20046;-76
2022/04/29 00:21:48;;;;;;;14.38;2.90;;;6.80;99.90;;;;;;4979159;28;20046;-76
2022/04/29 00:24:14;;;;;;;14.95;3.67;;;6.80;99.90;;;;;;5005776;28;20049;-76
2022/04/29 00:26:40;;;;;;;10.55;2.80;;;6.80;99.90;;;;;;4989313;28;20038;-76
2022/04/29 00:29:07;;;;;;;14.05;3.05;;;6.80;99.90;;;;;;4975093;28;20030;-76
2022/04/29 00:31:34;;;;;;;15.23;3.22;;;6.80;99.90;;;;;;4990976;28;20057;-76
2022/04/29 00:34:00;;;;;;;23.52;3.50;;;6.80;99.90;;;;;;4990907;28;20049;-76
2022/04/29 00:36:26;;;;;;;14.48;3.38;;;6.80;99.90;;;;;;4985043;28;20125;-75
2022/04/29 00:38:53;;;;;;;9.85;2.92;;;6.80;99.90;;;;;;4988584;28;20220;-76
2022/04/29 00:41:20;;;;;;;16.08;3.63;;;6.80;99.90;;;;;;4992276;28;20508;-76
2022/04/29 00:43:46;;;;;;;22.95;3.63;;;6.70;99.90;;;;;;4975206;28;20112;-76
2022/04/29 00:46:12;;;;;;;13.32;3.20;;;6.70;99.90;;;;;;4975591;28;20073;-75
2022/04/29 00:48:38;;;;;;;13.02;3.80;;;6.70;99.90;;;;;;4997130;28;20041;-77
2022/04/29 00:51:05;;;;;;;12.13;3.80;;;6.70;99.90;;;;;;4985857;28;20056;-78
2022/04/29 00:53:30;;;;;;;9.00;3.30;;;6.70;99.90;;;;;;4969184;28;20041;-77
2022/04/29 00:55:57;;;;;;;12.23;3.38;;;6.70;99.90;;;;;;4964121;28;20065;-75
2022/04/29 00:58:36;;;;;;;15.18;3.55;;;6.60;99.90;;;;;;4970037;28;20033;-76
2022/04/29 01:01:04;;;;;;;8.85;3.50;;;6.60;99.90;;;;;;4976989;28;20054;-76
2022/04/29 01:03:32;;;;;;;13.80;4.30;;;6.60;99.90;;;;;;4992569;28;20054;-75
2022/04/29 01:05:58;;;;;;;16.60;3.92;;;6.60;99.90;;;;;;4979595;28;20470;-75
2022/04/29 01:08:23;;;;;;;16.05;4.45;;;6.60;99.90;;;;;;4973165;28;20037;-77
2022/04/29 01:10:49;;;;;;;12.95;3.97;;;6.60;99.90;;;;;;4978758;28;20050;-77
2022/04/29 01:13:16;;;;;;;14.35;4.07;;;6.50;99.90;;;;;;4976360;28;20386;-77
2022/04/29 01:15:44;;;;;;;9.57;4.00;;;6.50;99.90;;;;;;4977789;28;20084;-77
2022/04/29 01:18:10;;;;;;;7.55;3.78;;;6.50;99.90;;;;;;4968047;28;20117;-76
2022/04/29 01:20:36;;;;;;;12.60;4.22;;;6.50;99.90;;;;;;4980554;28;20058;-77
2022/04/29 01:23:13;;;;;;;12.18;4.57;;;6.70;99.90;;;;;;4974765;28;20042;-76
2022/04/29 01:25:40;;;;;;;10.65;4.55;;;6.40;99.90;;;;;;4971613;28;20112;-77
2022/04/29 01:28:06;;;;;;;14.60;5.00;;;6.40;99.90;;;;;;4962444;28;20038;-77
2022/04/29 01:30:31;;;;;;;13.75;4.13;;;6.40;99.90;;;;;;4991195;28;20141;-77
2022/04/29 01:32:59;;;;;;;13.60;4.45;;;6.40;99.90;;;;;;4976886;28;20497;-77
2022/04/29 01:35:25;;;;;;;15.73;4.53;;;6.60;99.90;;;;;;4968034;28;20473;-77
2022/04/29 01:37:51;;;;;;;10.40;4.28;;;6.40;99.90;;;;;;4962798;28;20104;-76
2022/04/29 01:40:19;;;;;;;11.85;4.30;;;6.40;99.90;;;;;;4977813;28;20516;-76
2022/04/29 01:42:44;;;;;;;10.63;4.18;;;6.40;99.90;;;;;;4969440;28;20180;-77
2022/04/29 01:45:11;;;;;;;14.18;5.00;;;6.50;99.90;;;;;;4985393;28;20152;-77
2022/04/29 01:47:36;;;;;;;8.05;4.00;;;6.50;99.90;;;;;;4977837;28;20101;-77
2022/04/29 01:50:03;;;;;;;18.15;4.97;;;6.50;99.90;;;;;;4992990;28;20103;-77
2022/04/29 01:52:29;;;;;;;16.77;5.15;;;6.50;99.90;;;;;;4975756;28;20038;-76
2022/04/29 01:54:55;;;;;;;11.07;4.03;;;6.50;99.90;;;;;;4973223;28;20053;-77
2022/04/29 01:57:20;;;;;;;14.93;4.32;;;6.50;99.90;;;;;;4975142;28;20085;-77
2022/04/29 01:59:46;;;;;;;9.60;4.18;;;6.50;99.90;;;;;;4995030;28;20052;-77
2022/04/29 02:02:13;;;;;;;11.07;4.43;;;6.60;99.90;;;;;;4980773;28;20035;-77
2022/04/29 02:04:39;;;;;;;10.00;4.85;;;6.50;99.90;;;;;;4985362;28;20034;-77
2022/04/29 02:07:06;;;;;;;12.65;4.70;;;6.60;99.90;;;;;;4991415;28;20050;-76
2022/04/29 02:09:32;;;;;;;18.15;4.85;;;6.50;99.90;;;;;;4980332;28;20038;-76
2022/04/29 02:12:05;;;;;;;11.60;4.57;;;6.50;99.90;;;;;;4976342;28;20054;-77
2022/04/29 02:14:41;;;;;;;12.60;4.78;;;6.50;99.90;;;;;;4960968;28;20060;-77
2022/04/29 02:17:08;;;;;;;14.25;4.97;;;6.50;99.90;;;;;;4979375;28;20461;-77
2022/04/29 02:19:35;;;;;;;16.35;4.72;;;6.50;99.90;;;;;;4976801;28;20390;-77
2022/04/29 02:22:02;;;;;;;9.88;4.57;;;6.60;99.90;;;;;;4980798;28;20410;-77
2022/04/29 02:24:28;;;;;;;19.45;4.25;;;6.50;99.90;;;;;;4971919;28;20786;-77
2022/04/29 02:26:55;;;;;;;10.45;4.22;;;6.50;99.90;;;;;;4986266;28;20104;-77
2022/04/29 02:29:21;;;;;;;11.10;3.92;;;6.50;99.90;;;;;;4990842;28;20042;-77
2022/04/29 02:31:49;;;;;;;11.40;4.47;;;6.60;99.90;;;;;;4977160;28;20056;-76
2022/04/29 02:34:15;;;;;;;16.42;5.13;;;6.60;99.90;;;;;;4990297;28;20088;-76
2022/04/29 02:36:41;;;;;;;8.65;5.22;;;6.40;99.90;;;;;;4988507;28;20066;-77
2022/04/29 02:39:08;;;;;;;11.50;5.30;;;6.40;99.90;;;;;;4977019;28;20494;-77
2022/04/29 02:41:34;;;;;;;13.73;6.18;;;6.40;99.90;;;;;;4965274;28;20065;-77
2022/04/29 02:43:59;;;;;;;12.65;5.50;;;6.40;99.90;;;;;;4983480;28;20362;-77
2022/04/29 02:46:25;;;;;;;12.48;6.25;;;6.40;99.90;;;;;;4971597;28;20064;-77
2022/04/29 02:48:50;;;;;;;12.32;6.50;;;6.30;99.90;;;;;;4977827;28;20188;-77
2022/04/29 02:51:16;;;;;;;12.70;5.65;;;6.30;99.90;;;;;;4984323;28;20084;-77
2022/04/29 02:53:43;;;;;;;12.32;5.50;;;6.30;99.90;;;;;;4988888;28;20366;-77
2022/04/29 02:56:08;;;;;;;17.20;6.15;;;6.30;99.90;;;;;;4965717;28;20168;-77
2022/04/29 02:58:34;;;;;;;12.23;5.97;;;6.40;99.90;;;;;;4991970;28;20122;-77
2022/04/29 03:01:01;;;;;;;7.47;5.45;;;6.40;99.90;;;;;;4978311;28;20038;-77
2022/04/29 03:03:28;;;;;;;13.80;5.75;;;6.30;99.90;;;;;;4964273;28;20485;-78
2022/04/29 03:05:54;;;;;;;10.35;6.22;;;6.30;99.90;;;;;;4963934;28;20122;-77
2022/04/29 03:08:19;;;;;;;16.88;6.35;;;6.40;99.90;;;;;;4987822;28;20436;-77
2022/04/29 03:10:46;;;;;;;8.73;6.10;;;6.40;99.90;;;;;;4972023;28;20046;-77
2022/04/29 03:13:16;;;;;;;12.65;6.00;;;6.40;99.90;;;;;;4970745;28;20077;-77
2022/04/29 03:15:45;;;;;;;13.88;5.85;;;6.30;99.90;;;;;;4991905;28;20461;-77
2022/04/29 03:18:20;;;;;;;20.08;6.15;;;6.40;99.90;;;;;;4978191;28;20066;-77
2022/04/29 03:20:49;;;;;;;11.35;5.85;;;6.60;99.90;;;;;;4985597;28;20087;-77
2022/04/29 03:23:14;;;;;;;17.05;6.00;;;6.40;99.90;;;;;;4961762;28;20050;-77
2022/04/29 03:25:40;;;;;;;11.63;5.82;;;6.30;99.90;;;;;;4999617;28;20042;-77
2022/04/29 03:28:06;;;;;;;11.90;5.65;;;6.90;99.90;;;;;;4962753;28;20040;-77
2022/04/29 03:30:33;;;;;;;17.75;7.00;;;6.30;99.90;;;;;;4982615;28;20050;-77
2022/04/29 03:33:00;;;;;;;13.48;6.10;;;6.40;99.90;;;;;;4979839;28;20447;-78
2022/04/29 03:35:26;;;;;;;13.20;5.90;;;6.40;99.90;;;;;;4983092;28;20072;-78
2022/04/29 03:37:53;;;;;;;9.95;5.75;;;6.40;99.90;;;;;;4982139;28;20058;-77
2022/04/29 03:40:24;;;;;;;11.38;6.00;;;6.40;99.90;;;;;;4962017;28;20042;-77
2022/04/29 03:42:51;;;;;;;16.08;6.55;;;6.30;99.90;;;;;;4981001;28;20034;-77
2022/04/29 03:45:19;;;;;;;9.38;6.07;;;6.30;99.90;;;;;;4986437;28;20034;-77
2022/04/29 03:47:45;;;;;;;15.43;5.80;;;6.30;99.90;;;;;;4983457;28;20046;-77
2022/04/29 03:50:11;;;;;;;11.45;5.38;;;6.30;99.90;;;;;;4979048;28;20037;-77
2022/04/29 03:52:48;;;;;;;12.57;5.35;;;6.50;99.90;;;;;;4988486;28;20029;-77
2022/04/29 03:55:22;;;;;;;11.40;5.70;;;6.40;99.90;;;;;;4982997;28;20050;-78
2022/04/29 03:57:48;;;;;;;17.48;6.13;;;6.40;99.90;;;;;;4980307;28;20038;-77
2022/04/29 04:00:14;;;;;;;14.10;6.30;;;6.40;99.90;;;;;;4992847;28;20054;-76
2022/04/29 04:02:41;;;;;;;14.07;6.15;;;6.40;99.90;;;;;;4979887;28;20052;-76
2022/04/29 04:05:08;;;;;;;10.65;5.60;;;6.50;99.90;;;;;;4978646;28;20149;-77
2022/04/29 04:07:34;;;;;;;17.13;5.53;;;6.50;99.90;;;;;;5002671;28;20038;-77
2022/04/29 04:10:00;;;;;;;20.35;5.95;;;6.40;99.90;;;;;;4982292;28;20038;-77
2022/04/29 04:12:26;;;;;;;12.23;5.07;;;6.50;99.90;;;;;;4979959;28;20060;-77
2022/04/29 04:14:52;;;;;;;10.13;5.53;;;6.50;99.90;;;;;;4984610;28;20402;-77
2022/04/29 04:17:18;;;;;;;10.25;5.20;;;6.40;99.90;;;;;;4963172;28;20038;-77
2022/04/29 04:19:43;;;;;;;13.95;5.63;;;6.50;99.90;;;;;;4988841;28;20068;-77
2022/04/29 04:22:09;;;;;;;10.95;5.82;;;6.50;99.90;;;;;;4961305;28;20116;-77
2022/04/29 04:24:35;;;;;;;13.32;5.57;;;6.60;99.90;;;;;;4986794;28;20157;-77
2022/04/29 04:27:01;;;;;;;12.35;5.55;;;6.60;99.90;;;;;;4968544;28;20137;-77
2022/04/29 04:29:26;;;;;;;12.23;5.72;;;6.60;99.90;;;;;;4975937;28;20393;-77
2022/04/29 04:31:53;;;;;;;11.85;5.45;;;6.90;99.90;;;;;;5000325;28;20042;-78
2022/04/29 04:37:03;;;;;;;12.90;5.90;;;7.30;99.90;;;;;;4982952;28;20049;-78
2022/04/29 04:39:29;;;;;;;11.68;5.40;;;7.20;99.90;;;;;;4982191;28;20049;-78
2022/04/29 04:41:55;;;;;;;8.45;5.15;;;7.20;99.90;;;;;;4971314;28;20054;-78
2022/04/29 04:44:20;;;;;;;17.33;6.13;;;7.10;99.90;;;;;;4982976;28;20148;-78
2022/04/29 04:46:46;;;;;;;13.55;5.40;;;7.10;99.90;;;;;;4965700;28;20510;-78
2022/04/29 04:49:15;;;;;;;12.77;5.80;;;7.40;99.90;;;;;;4966038;28;20060;-79
2022/04/29 04:51:41;;;;;;;14.55;5.90;;;7.20;99.90;;;;;;4967337;28;20065;-78
2022/04/29 04:54:07;;;;;;;14.85;6.43;;;7.20;99.90;;;;;;4963857;28;20725;-82
2022/04/29 04:56:33;;;;;;;11.13;6.13;;;7.30;99.90;;;;;;4980103;28;20041;-80
2022/04/29 04:58:58;;;;;;;10.13;5.63;;;7.80;99.90;;;;;;4983831;28;20046;-80
2022/04/29 05:01:24;;;;;;;9.98;5.82;;;7.40;99.90;;;;;;4972745;28;20866;-81
2022/04/29 05:03:49;;;;;;;11.07;6.07;;;7.40;99.90;;;;;;4984919;28;20125;-79
2022/04/29 05:06:15;;;;;;;15.55;5.75;;;7.50;99.90;;;;;;4981058;28;20062;-79
2022/04/29 05:08:41;;;;;;;10.20;5.75;;;7.60;99.90;;;;;;4981978;28;20105;-79
2022/04/29 05:11:06;;;;;;;11.45;5.38;;;7.70;99.90;;;;;;4984000;28;20038;-79
2022/04/29 05:13:32;;;;;;;9.95;5.72;;;7.80;99.90;;;;;;4968324;28;20050;-80
2022/04/29 05:15:58;;;;;;;16.90;6.03;;;7.90;99.90;;;;;;4973078;28;20133;-81
2022/04/29 05:18:24;;;;;;;10.32;5.40;;;7.90;99.90;;;;;;4970054;28;20096;-76
2022/04/29 05:20:49;;;;;;;14.10;6.00;;;7.90;99.90;;;;;;4968052;28;20046;-75
2022/04/29 05:23:15;;;;;;;15.43;5.50;;;7.90;99.90;;;;;;4970125;28;20108;-76
2022/04/29 05:29:03;;;;;;;9.88;4.40;;;8.00;99.90;;;;;;5011064;28;20064;-74
2022/04/29 05:31:30;;;;;;;13.43;4.40;;;8.00;99.90;;;;;;5000925;28;20045;-76
2022/04/29 05:33:56;;;;;;;10.27;4.20;;;8.00;99.90;;;;;;4988815;28;20353;-75
2022/04/29 05:36:21;;;;;;;10.05;4.13;;;8.10;99.90;;;;;;4979245;28;20046;-75
2022/04/29 05:44:16;;;;;;;9.45;4.10;;;8.30;99.90;;;;;;4979333;28;20057;-76
2022/04/29 05:46:41;;;;;;;10.70;3.67;;;8.30;99.90;;;;;;4967658;28;20042;-76
2022/04/29 05:49:07;;;;;;;11.75;3.60;;;8.30;99.90;;;;;;4979325;28;20077;-76
2022/04/29 05:51:33;;;;;;;6.90;3.75;;;8.30;99.90;;;;;;4988066;28;20361;-76
2022/04/29 05:54:00;;;;;;;6.05;3.40;;;8.30;99.90;;;;;;4986140;28;20033;-76
2022/04/29 05:56:29;;;;;;;8.68;3.42;;;8.30;99.90;;;;;;4981438;28;20050;-75
2022/04/29 05:58:55;;;;;;;4.75;2.88;;;8.30;99.90;;;;;;4975512;28;20061;-76
2022/04/29 06:01:21;;;;;;;10.25;3.05;;;8.40;99.90;;;;;;4961170;28;20047;-76
2022/04/29 06:03:46;;;;;;;9.02;3.10;;;8.40;99.90;;;;;;4964535;28;20042;-76
2022/04/29 06:06:15;;;;;;;12.27;2.85;;;8.40;99.90;;;;;;4948448;28;20046;-75
2022/04/29 06:08:40;;;;;;;7.65;3.08;;;8.40;99.90;;;;;;4960992;28;20082;-75
2022/04/29 06:11:06;;;;;;;11.88;3.05;;;8.50;99.90;;;;;;4945505;28;20093;-75
2022/04/29 06:13:32;;;;;;;8.25;3.00;;;8.50;99.90;;;;;;4943596;28;20166;-75
2022/04/29 06:15:59;;;;;;;12.63;2.92;;;8.50;99.90;;;;;;4965552;28;20133;-76
2022/04/29 06:18:25;;;;;;;10.05;3.33;;;8.50;99.90;;;;;;4979942;28;20061;-78
2022/04/29 06:20:50;;;;;;;8.73;3.00;;;8.60;99.90;;;;;;4976405;28;20494;-76
2022/04/29 06:23:16;;;;;;;7.05;2.92;;;8.70;99.90;;;;;;4948272;28;20050;-77
2022/04/29 06:25:45;;;;;;;7.10;3.40;;;8.80;99.90;;;;;;4964449;28;20054;-80
2022/04/29 06:28:12;;;;;;;10.05;2.97;;;8.70;99.90;;;;;;4965094;28;20521;-77
2022/04/29 06:30:41;;;;;;;15.52;3.17;;;8.80;99.90;;;;;;4946551;28;20042;-78
2022/04/29 06:33:07;;;;;;;20.20;4.15;;;8.90;99.90;;;;;;4947712;28;20116;-75
2022/04/29 06:35:35;;;;;;;29.67;4.47;;;8.90;99.90;;;;;;4969834;28;20039;-75
2022/04/29 06:38:00;;;;;;;10.20;3.65;;;9.00;99.90;;;;;;4964422;28;20046;-75
2022/04/29 06:40:28;;;;;;;10.82;2.90;;;9.00;99.90;;;;;;4969753;28;20573;-75
2022/04/29 06:42:53;;;;;;;12.30;3.47;;;9.10;99.90;;;;;;4968144;28;20087;-75
2022/04/29 06:45:19;;;;;;;11.45;3.20;;;9.20;99.90;;;;;;4953363;28;20077;-75
2022/04/29 06:47:45;;;;;;;5.57;3.03;;;9.30;99.90;;;;;;4959752;28;20073;-78
2022/04/29 06:50:10;;;;;;;8.68;3.05;;;9.70;99.90;;;;;;4958850;28;20054;-76
2022/04/29 06:52:36;;;;;;;12.30;3.30;;;9.50;99.90;;;;;;4955245;28;20031;-76
2022/04/29 06:55:03;;;;;;;7.18;3.42;;;9.50;99.90;;;;;;4958168;28;20112;-76
2022/04/29 06:57:30;;;;;;;10.15;3.28;;;9.40;99.90;;;;;;4968172;28;20053;-76
2022/04/29 06:59:56;;;;;;;12.90;3.10;;;9.40;99.90;;;;;;4959115;28;20065;-77
2022/04/29 07:02:32;;;;;;;9.40;3.28;;;9.30;99.90;;;;;;4984784;28;20173;-79
2022/04/29 07:04:58;;;;;;;8.55;3.00;;;9.20;99.90;;;;;;4997662;28;20045;-83
2022/04/29 07:07:28;;;;;;;8.55;2.75;;;9.30;99.90;;;;;;4969293;28;20060;-77
2022/04/29 07:09:57;;;;;;;7.15;3.03;;;9.70;99.90;;;;;;4988225;28;20478;-77
2022/04/29 07:12:22;;;;;;;5.93;2.90;;;9.50;99.90;;;;;;4981364;28;20042;-78
2022/04/29 07:14:52;;;;;;;8.57;2.90;;;9.60;99.90;;;;;;4996489;28;20046;-78
2022/04/29 07:17:27;;;;;;;9.10;2.83;;;9.50;99.90;;;;;;4987813;28;20571;-79
2022/04/29 07:19:55;;;;;;;;;;;9.50;99.90;;;;;;4988031;28;20116;-76
2022/04/29 07:22:20;;;;;;;7.78;3.10;;;9.70;99.90;;;;;;4985833;28;20381;-76
2022/04/29 07:24:49;;;;;;;8.23;3.00;;;9.80;99.90;;;;;;5000898;28;20107;-76
2022/04/29 07:27:15;;;;;;;11.25;2.53;;;9.70;99.90;;;;;;5018226;28;20065;-77
2022/04/29 07:29:41;;;;;;;11.93;2.67;;;9.40;99.90;;;;;;5001552;28;20038;-78
2022/04/29 07:32:07;;;;;;;4.70;2.70;;;9.30;99.90;;;;;;4997163;28;20037;-78
2022/04/29 07:42:45;;;;;;;7.63;2.70;;;9.70;99.90;;;;;;5000058;28;20121;-77
2022/04/29 07:45:11;;;;;;;8.88;2.97;;;10.10;99.90;;;;;;4991375;28;20183;-78
2022/04/29 07:47:36;;;;;;;11.27;3.13;;;10.00;99.90;;;;;;4982816;28;20038;-78
2022/04/29 07:50:05;;;;;;;7.10;2.58;;;10.50;99.90;;;;;;5001525;28;20026;-77
2022/04/29 07:52:32;;;;;;;6.85;1.90;;;10.20;99.90;;;;;;4992663;28;20041;-76
2022/04/29 07:54:57;;;;;;;7.40;1.67;;;10.40;99.90;;;;;;4988135;28;20050;-80
2022/04/29 07:57:23;;;;;;;6.00;1.50;;;10.20;99.90;;;;;;4986802;28;20065;-78
2022/04/29 07:59:49;;;;;;;4.93;1.90;;;10.40;99.90;;;;;;4991506;28;20454;-79
2022/04/29 08:02:15;;;;;;;7.65;1.80;;;10.50;99.90;;;;;;5015711;28;20057;-79
2022/04/29 08:04:41;;;;;;;4.80;1.40;;;10.60;99.90;;;;;;5015406;28;20045;-79
2022/04/29 08:07:06;;;;;;;4.15;1.50;;;10.50;99.90;;;;;;5006538;28;20052;-79
2022/04/29 08:09:32;;;;;;;8.18;1.92;;;10.40;99.90;;;;;;4976336;28;20043;-79
2022/04/29 08:11:58;;;;;;;10.32;2.40;;;10.30;99.90;;;;;;5012356;28;20121;-79
2022/04/29 08:14:23;;;;;;;15.70;2.20;;;10.20;99.90;;;;;;5013218;28;20046;-77
2022/04/29 08:16:49;;;;;;;7.70;1.80;;;10.20;99.90;;;;;;4997620;28;20038;-78
2022/04/29 08:19:15;;;;;;;7.93;2.10;;;10.10;99.90;;;;;;5008863;28;20045;-78
2022/04/29 08:21:41;;;;;;;6.93;1.48;;;10.00;99.90;;;;;;4977654;28;20121;-79
2022/04/29 08:24:07;;;;;;;8.63;2.40;;;10.10;99.90;;;;;;5005030;28;20392;-79
2022/04/29 08:26:33;;;;;;;8.13;1.90;;;10.10;99.90;;;;;;4991559;28;20042;-77
2022/04/29 08:28:58;;;;;;;9.88;2.03;;;10.30;99.90;;;;;;4975832;28;20371;-77
2022/04/29 08:31:25;;;;;;;8.40;1.90;;;10.50;99.90;;;;;;5000167;28;20042;-77
2022/04/29 08:33:50;;;;;;;6.47;1.77;;;10.50;99.90;;;;;;5009431;28;20046;-77
2022/04/29 08:36:16;;;;;;;9.63;2.35;;;10.60;99.90;;;;;;5002689;28;20053;-77
2022/04/29 08:38:46;;;;;;;5.65;2.38;;;10.60;99.90;;;;;;4986086;28;20038;-77
2022/04/29 08:42:05;;;;;;;12.32;2.00;;;10.60;99.90;;;;;;4996483;28;20053;-77
2022/04/29 08:44:33;;;;;;;6.10;1.95;;;10.70;99.90;;;;;;4991848;28;20045;-77
2022/04/29 08:46:59;;;;;;;5.80;1.98;;;10.50;99.90;;;;;;4999234;28;20088;-77
2022/04/29 08:49:25;;;;;;;4.03;1.70;;;10.50;99.90;;;;;;5010266;28;20037;-77
2022/04/29 08:51:52;;;;;;;5.15;2.00;;;10.70;99.90;;;;;;4981651;28;20101;-77
2022/04/29 08:59:57;;;;;;;8.40;2.63;;;10.90;99.90;;;;;;5004995;28;20056;-78
2022/04/29 09:02:22;;;;;;;6.80;2.00;;;11.00;99.90;;;;;;4978620;28;20080;-78
2022/04/29 09:04:49;;;;;;;7.97;2.03;;;10.90;99.90;;;;;;4994775;28;20077;-78
2022/04/29 09:07:15;;;;;;;9.70;2.10;;;10.80;99.90;;;;;;4978642;28;20129;-78
2022/04/29 09:09:41;;;;;;;7.15;2.13;;;11.00;99.90;;;;;;5000264;28;20042;-78
2022/04/29 09:12:17;;;;;;;4.32;1.60;;;11.10;99.90;;;;;;4994472;28;20101;-78
2022/04/29 09:14:43;;;;;;;6.25;2.05;;;11.10;99.90;;;;;;5012453;28;20041;-78
2022/04/29 09:17:27;;;;;;;8.48;1.95;;;11.10;99.90;;;;;;4987512;28;20042;-78
2022/04/29 09:19:53;;;;;;;7.22;2.15;;;10.80;99.90;;;;;;5006118;28;20193;-78
2022/04/29 09:22:19;;;;;;;6.97;1.70;;;11.00;99.90;;;;;;4993118;28;20576;-77
2022/04/29 09:25:03;;;;;;;7.10;1.67;;;10.80;99.90;;;;;;4993373;28;20551;-77
2022/04/29 09:27:28;;;;;;;6.07;1.75;;;10.90;99.90;;;;;;5002185;28;20050;-77
2022/04/29 09:30:00;;;;;;;4.85;1.70;;;10.90;99.90;;;;;;5008480;28;20053;-77
2022/04/29 09:32:47;;;;;;;6.28;2.20;;;10.90;99.90;;;;;;4974038;28;20344;-77
2022/04/29 09:35:12;;;;;;;11.18;2.20;;;10.90;99.90;;;;;;4997997;28;20049;-76
2022/04/29 09:39:26;;;;;;;13.60;2.97;;;10.70;99.90;;;;;;5013971;28;20108;-75
2022/04/29 09:40:37;;;;;;;10.75;2.92;;;10.70;99.90;;;;;;4983479;28;20423;-77
2022/04/29 09:43:03;;;;;;;5.97;2.00;;;10.60;99.90;;;;;;4952135;28;20066;-77
2022/04/29 09:45:29;;;;;;;9.68;2.35;;;10.50;99.90;;;;;;5001897;28;20046;-77
2022/04/29 09:47:58;;;;;;;8.57;2.00;;;10.40;99.90;;;;;;5003423;28;20555;-77
2022/04/29 09:50:47;;;;;;;5.90;2.30;;;10.40;99.90;;;;;;4984530;28;20050;-77
2022/04/29 09:53:21;;;;;;;14.75;2.53;;;10.20;99.90;;;;;;5010341;28;20053;-77
2022/04/29 09:56:11;;;;;;;7.43;2.30;;;10.40;99.90;;;;;;5005579;28;20046;-77
2022/04/29 09:58:37;;;;;;;9.32;2.63;;;10.30;99.90;;;;;;5015155;28;20078;-77
2022/04/29 10:01:07;;;;;;;10.27;2.90;;;10.20;99.90;;;;;;5003828;28;20085;-77
2022/04/29 10:03:34;;;;;;;9.05;2.50;;;10.40;99.90;;;;;;4982172;28;20037;-77
2022/04/29 10:06:01;;;;;;;6.82;2.60;;;10.20;99.90;;;;;;5001268;28;20651;-77
2022/04/29 10:08:30;;;;;;;6.65;2.70;;;10.20;99.90;;;;;;4988930;28;20064;-77
2022/04/29 10:10:57;;;;;;;7.03;2.75;;;10.30;99.90;;;;;;4951980;28;20053;-77
2022/04/29 10:13:26;;;;;;;7.82;2.70;;;10.30;99.90;;;;;;4993768;28;20038;-77
2022/04/29 10:15:53;;;;;;;6.47;2.25;;;10.20;99.90;;;;;;5005817;28;20057;-77
2022/04/29 10:21:16;;;;;;;6.68;2.83;;;10.30;99.90;;;;;;4985869;28;20053;-76
2022/04/29 10:23:48;;;;;;;12.15;2.67;;;10.20;99.90;;;;;;4989199;28;20405;-76
2022/04/29 10:26:15;;;;;;;9.35;2.80;;;10.00;99.90;;;;;;4994835;28;20117;-77
2022/04/29 10:28:41;;;;;;;6.05;2.70;;;10.00;99.90;;;;;;5001533;28;20057;-77
2022/04/29 10:31:09;;;;;;;4.75;2.58;;;10.20;99.90;;;;;;5001230;28;20031;-79
2022/04/29 10:33:36;;;;;;;7.60;2.70;;;10.00;99.90;;;;;;4970195;28;20329;-76
2022/04/29 10:36:09;;;;;;;4.70;2.50;;;10.30;99.90;;;;;;4979621;28;20054;-74
2022/04/29 10:38:40;;;;;;;9.48;2.30;;;10.50;99.90;;;;;;5003069;28;20121;-79
2022/04/29 10:41:06;;;;;;;5.05;2.38;;;10.20;99.90;;;;;;5000573;28;20045;-78
2022/04/29 10:43:35;;;;;;;8.13;2.60;;;10.10;99.90;;;;;;4990226;28;20085;-78
2022/04/29 10:46:22;;;;;;;7.70;2.78;;;10.30;99.90;;;;;;4984357;28;20043;-76
2022/04/29 10:48:57;;;;;;;5.00;1.80;;;10.20;99.90;;;;;;4928824;28;20043;-75
2022/04/29 10:51:29;;;;;;;;;;;9.90;99.90;;;;;;4927893;29;20079;-78
2022/04/29 10:53:58;;;;;;;9.68;3.00;;;10.00;99.90;;;;;;4932721;29;20009;-76
2022/04/29 10:56:45;;;;;;;7.53;2.65;;;10.10;99.90;;;;;;4920035;29;20239;-75
2022/04/29 10:59:15;;;;;;;8.52;3.00;;;10.10;99.90;;;;;;4919476;28;20051;-75
2022/04/29 11:02:05;;;;;;;4.13;2.30;;;10.20;99.90;;;;;;4926233;28;20979;-76
2022/04/29 11:04:31;;;;;;;8.68;2.92;;;10.30;99.90;;;;;;4931238;29;20093;-80
2022/04/29 11:06:57;;;;;;;6.50;2.65;;;10.20;99.90;;;;;;4927646;29;20137;-76
2022/04/29 11:09:47;;;;;;;5.95;2.50;;;10.60;99.90;;;;;;4929398;28;20075;-77
2022/04/29 11:12:32;;;;;;;10.10;2.67;;;10.60;99.90;;;;;;4932865;28;20069;-76
2022/04/29 11:15:07;;;;;;;5.53;1.92;;;10.70;99.90;;;;;;4916717;28;20111;-77
2022/04/29 11:17:37;;;;;;;5.95;2.13;;;10.80;99.90;;;;;;4933620;29;20601;-76
2022/04/29 11:20:22;;;;;;;6.45;2.55;;;10.80;99.90;;;;;;4923786;29;20043;-75
2022/04/29 11:25:59;;;;;;;7.53;2.40;;;11.30;99.90;;;;;;4950976;28;20587;-77
2022/04/29 11:28:27;;;;;;;4.88;2.15;;;10.70;99.90;;;;;;4998814;28;20065;-75
2022/04/29 11:31:01;;;;;;;8.07;2.60;;;10.70;99.90;;;;;;5001593;28;20054;-76
2022/04/29 11:33:27;;;;;;;4.80;2.45;;;10.60;99.90;;;;;;4995529;28;20126;-75
2022/04/29 11:36:05;;;;;;;9.73;2.75;;;10.70;99.90;;;;;;4996779;28;20140;-76
2022/04/29 11:38:38;;;;;;;6.35;2.50;;;10.80;99.90;;;;;;4996362;28;20053;-76
2022/04/29 11:41:05;;;;;;;9.23;2.50;;;10.70;99.90;;;;;;4996419;28;20045;-76
2022/04/29 11:43:30;;;;;;;5.90;2.40;;;10.80;99.90;;;;;;5021143;28;20042;-77
2022/04/29 11:46:05;;;;;;;11.55;2.15;;;10.90;99.90;;;;;;5004723;28;20500;-76
2022/04/29 11:48:33;;;;;;;7.57;1.90;;;10.90;99.90;;;;;;5009833;28;20458;-77
2022/04/29 11:50:58;;;;;;;5.95;1.90;;;10.90;99.90;;;;;;4984747;28;20141;-77
2022/04/29 11:53:24;;;;;;;6.97;2.13;;;11.10;99.90;;;;;;4981318;28;20041;-76
2022/04/29 11:55:50;;;;;;;7.82;1.92;;;11.10;99.90;;;;;;4985316;28;20509;-77
2022/04/29 11:58:17;;;;;;;5.55;1.95;;;11.10;99.90;;;;;;5001125;28;20050;-78
2022/04/29 12:00:50;;;;;;;5.80;2.40;;;11.20;99.90;;;;;;5004888;28;20116;-79
2022/04/29 12:03:20;;;;;;;3.20;1.83;;;11.20;99.90;;;;;;4981847;28;20057;-77
2022/04/29 12:05:47;;;;;;;7.82;2.25;;;11.20;99.90;;;;;;4996978;28;20054;-77
2022/04/29 12:08:14;;;;;;;6.90;2.10;;;11.20;99.90;;;;;;4987028;28;20034;-77
2022/04/29 12:10:45;;;;;;;8.10;2.10;;;11.30;99.90;;;;;;4999782;28;20050;-77
2022/04/29 12:13:11;;;;;;;4.57;1.85;;;11.10;99.90;;;;;;4991423;28;20540;-79
2022/04/29 12:15:38;;;;;;;6.03;2.30;;;11.00;99.90;;;;;;5003378;28;20065;-77
2022/04/29 12:18:08;;;;;;;6.32;2.00;;;11.00;99.90;;;;;;4985623;28;20544;-80
2022/04/29 12:20:34;;;;;;;7.53;2.28;;;10.90;99.90;;;;;;5020228;28;20042;-77
2022/04/29 12:23:22;;;;;;;6.35;2.15;;;11.00;99.90;;;;;;4981230;28;20471;-78
2022/04/29 12:25:48;;;;;;;6.25;2.10;;;10.70;99.90;;;;;;5000051;28;20397;-78
2022/04/29 12:28:14;;;;;;;5.53;2.33;;;10.80;99.90;;;;;;4960563;28;20054;-77
2022/04/29 12:36:49;;;;;;;5.38;2.33;;;11.10;99.90;;;;;;5000220;28;20461;-79
2022/04/29 12:39:16;;;;;;;7.22;2.40;;;11.10;99.90;;;;;;4999945;28;20105;-78
2022/04/29 12:41:55;;;;;;;8.38;2.20;;;11.00;99.90;;;;;;4998283;28;20132;-76
2022/04/29 12:47:23;;;;;;;6.55;2.10;;;10.90;99.90;;;;;;4985237;28;20373;-80
2022/04/29 12:49:49;;;;;;;7.47;2.35;;;10.80;99.90;;;;;;4983541;28;20045;-78
2022/04/29 12:52:15;;;;;;;4.88;2.00;;;10.80;99.90;;;;;;4973905;28;20053;-78
2022/04/29 12:54:40;;;;;;;6.38;2.10;;;11.50;99.90;;;;;;4988370;28;20466;-78
2022/04/29 12:57:09;;;;;;;10.07;2.20;;;11.00;99.90;;;;;;4990427;28;20053;-76
2022/04/29 12:59:37;;;;;;;5.90;2.00;;;11.00;99.90;;;;;;4999763;28;20120;-77
2022/04/29 13:02:07;;;;;;;8.60;2.00;;;11.30;99.90;;;;;;4986385;28;20045;-77
2022/04/29 13:04:33;;;;;;;6.35;2.42;;;11.30;99.90;;;;;;5000397;28;20064;-78
2022/04/29 13:06:59;;;;;;;3.67;1.80;;;11.50;99.90;;;;;;4992904;28;20038;-78
2022/04/29 13:09:28;;;;;;;3.28;1.90;;;11.20;99.90;;;;;;4984247;28;20046;-76
2022/04/29 13:11:54;;;;;;;5.53;2.20;;;11.20;99.90;;;;;;4993694;28;20142;-79
2022/04/29 13:14:19;;;;;;;4.45;2.00;;;11.20;99.90;;;;;;4996203;28;20133;-79
2022/04/29 13:16:47;;;;;;;5.78;2.03;;;11.20;99.90;;;;;;4981960;28;20043;-79
2022/04/29 13:19:15;;;;;;;5.88;2.28;;;11.20;99.90;;;;;;4985939;28;21888;-79
2022/04/29 13:21:41;;;;;;;4.28;1.98;;;11.10;99.90;;;;;;4984362;28;20049;-78
2022/04/29 13:24:07;;;;;;;6.25;2.22;;;11.10;99.90;;;;;;4977493;28;20481;-81
2022/04/29 13:26:33;;;;;;;6.40;1.90;;;11.30;99.90;;;;;;4965125;28;20061;-80
2022/04/29 13:28:59;;;;;;;4.22;1.90;;;11.20;99.90;;;;;;4965910;28;20046;-79
2022/04/29 13:31:25;;;;;;;5.47;2.60;;;11.20;99.90;;;;;;4977006;28;20560;-79
2022/04/29 13:33:50;;;;;;;6.13;2.22;;;11.10;99.90;;;;;;4999917;28;20408;-78